Time;durP1;ratioP1;P1;durP2;ratioP2;P2;SDS_P1;SDS_P2;PMS_P1;PMS_P2;Temp;Humidity;BMP_temperature;BMP_pressure;BME280_temperature;BME280_humidity;BME280_pressure;Samples;Min_cycle;Max_cycle;Signal;HPM_P1;HPM_P2
2022/06/09 00:01:05;;;;;;;12.20;5.38;;;;;;;;;;5078547;28;20039;-82
2022/06/09 00:03:40;;;;;;;16.30;5.78;;;;;;;;;;5064055;28;20417;-82
2022/06/09 00:06:09;;;;;;;23.17;6.22;;;;;;;;;;5096493;28;20058;-82
2022/06/09 00:08:36;;;;;;;13.82;5.60;;;;;;;;;;5081419;28;20153;-81
2022/06/09 00:11:04;;;;;;;15.50;6.43;;;;;;;;;;5063010;28;20057;-81
2022/06/09 00:13:30;;;;;;;14.80;5.50;;;;;;;;;;5063040;28;20105;-83
2022/06/09 00:15:56;;;;;;;15.85;5.43;;;;;;;;;;5064231;28;20036;-82
2022/06/09 00:18:22;;;;;;;20.50;5.45;;;;;;;;;;5062690;28;20044;-81
2022/06/09 00:20:49;;;;;;;13.95;5.13;;;;;;;;;;5063118;28;20036;-83
2022/06/09 00:23:16;;;;;;;18.23;5.65;;;;;;;;;;5061411;28;20044;-81
2022/06/09 00:25:42;;;;;;;12.75;5.40;;;;;;;;;;5063967;28;20098;-84
2022/06/09 00:28:08;;;;;;;19.60;5.60;;;;;;;;;;5081338;28;20032;-83
2022/06/09 00:30:35;;;;;;;13.45;4.82;;;;;;;;;;5064460;28;20075;-82
2022/06/09 00:33:00;;;;;;;24.27;7.90;;;;;;;;;;5063853;28;20106;-82
2022/06/09 00:35:26;;;;;;;13.13;5.85;;;;;;;;;;5063195;28;20036;-81
2022/06/09 00:37:52;;;;;;;16.05;5.35;;;;;;;;;;5062288;28;20165;-82
2022/06/09 00:40:18;;;;;;;17.75;6.10;;;;;;;;;;5081275;28;20484;-82
2022/06/09 00:42:45;;;;;;;17.50;5.53;;;;;;;;;;5062204;28;20554;-82
2022/06/09 00:45:29;;;;;;;16.08;5.97;;;;;;;;;;5062439;28;20042;-81
2022/06/09 00:48:08;;;;;;;18.42;5.93;;;;;;;;;;5097053;28;20439;-82
2022/06/09 00:50:35;;;;;;;18.88;6.10;;;;;;;;;;5080849;28;20059;-83
2022/06/09 00:53:05;;;;;;;13.88;5.28;;;;;;;;;;5110261;28;20044;-83
2022/06/09 00:55:32;;;;;;;18.33;5.88;;;;;;;;;;5061877;28;20151;-81
2022/06/09 00:58:13;;;;;;;14.15;5.80;;;;;;;;;;5078828;28;20493;-81
2022/06/09 01:00:39;;;;;;;;;;;;;;;;;;5079253;28;20043;-80
2022/06/09 01:03:06;;;;;;;15.75;6.25;;;;;;;;;;5101194;28;19916;-82
2022/06/09 01:05:33;;;;;;;17.98;6.45;;;;;;;;;;5065795;28;20126;-83
2022/06/09 01:08:01;;;;;;;20.98;5.97;;;;;;;;;;5067248;28;20048;-82
2022/06/09 01:10:29;;;;;;;17.02;6.55;;;;;;;;;;5065848;28;20037;-84
2022/06/09 01:12:56;;;;;;;19.58;5.72;;;;;;;;;;5065627;28;20523;-80
2022/06/09 01:15:23;;;;;;;19.80;5.88;;;;;;;;;;5067739;28;20442;-82
2022/06/09 01:18:02;;;;;;;18.48;6.82;;;;;;;;;;5068102;28;20041;-84
2022/06/09 01:20:29;;;;;;;19.00;6.43;;;;;;;;;;5096314;28;20040;-82
2022/06/09 01:22:58;;;;;;;18.33;5.95;;;;;;;;;;5067244;28;20040;-82
2022/06/09 01:25:43;;;;;;;19.77;6.95;;;;;;;;;;5067562;28;20074;-81
2022/06/09 01:28:28;;;;;;;19.00;5.68;;;;;;;;;;5114637;27;20044;-83
2022/06/09 01:30:59;;;;;;;23.60;6.22;;;;;;;;;;5098762;28;20037;-81
2022/06/09 01:33:25;;;;;;;21.33;6.97;;;;;;;;;;5113211;27;20143;-82
2022/06/09 01:35:56;;;;;;;19.58;7.43;;;;;;;;;;5060652;28;20575;-84
2022/06/09 01:38:22;;;;;;;19.48;7.07;;;;;;;;;;5056765;28;20508;-81
2022/06/09 01:40:48;;;;;;;19.77;7.25;;;;;;;;;;5056144;28;20056;-81
2022/06/09 01:43:14;;;;;;;13.88;6.70;;;;;;;;;;5056211;28;20151;-81
2022/06/09 01:45:40;;;;;;;21.77;6.35;;;;;;;;;;5056193;28;20040;-83
2022/06/09 01:48:08;;;;;;;21.73;7.35;;;;;;;;;;5056419;28;20037;-83
2022/06/09 01:50:37;;;;;;;18.75;7.10;;;;;;;;;;5056468;28;20044;-84
2022/06/09 01:53:05;;;;;;;17.95;7.07;;;;;;;;;;5055920;28;20051;-83
2022/06/09 01:55:33;;;;;;;22.58;8.07;;;;;;;;;;5056074;28;20151;-82
2022/06/09 01:58:00;;;;;;;24.45;7.50;;;;;;;;;;5063172;28;20435;-80
2022/06/09 02:00:27;;;;;;;20.98;8.00;;;;;;;;;;5081351;28;20037;-82
2022/06/09 02:02:53;;;;;;;21.23;6.85;;;;;;;;;;5066059;28;20040;-80
2022/06/09 02:05:22;;;;;;;25.30;9.20;;;;;;;;;;5065566;28;20503;-83
2022/06/09 02:07:48;;;;;;;22.67;8.30;;;;;;;;;;5064447;28;20063;-82
2022/06/09 02:10:19;;;;;;;20.42;7.43;;;;;;;;;;5082801;28;20043;-81
2022/06/09 02:12:46;;;;;;;29.25;8.95;;;;;;;;;;5066048;28;20193;-82
2022/06/09 02:15:15;;;;;;;25.05;7.68;;;;;;;;;;5080744;28;20036;-83
2022/06/09 02:17:41;;;;;;;23.60;7.95;;;;;;;;;;5064854;28;20452;-81
2022/06/09 02:20:07;;;;;;;24.27;7.68;;;;;;;;;;5066212;28;20036;-82
2022/06/09 02:22:33;;;;;;;25.80;8.98;;;;;;;;;;5064681;28;20037;-83
2022/06/09 02:24:59;;;;;;;19.50;7.40;;;;;;;;;;5064536;28;20062;-81
2022/06/09 02:27:25;;;;;;;29.25;7.70;;;;;;;;;;5060545;28;20078;-83
2022/06/09 02:29:51;;;;;;;23.65;8.27;;;;;;;;;;5055706;28;20040;-83
2022/06/09 02:32:17;;;;;;;24.25;8.70;;;;;;;;;;5055205;28;20090;-84
2022/06/09 02:34:43;;;;;;;18.85;8.43;;;;;;;;;;5055304;28;20477;-82
2022/06/09 02:37:09;;;;;;;20.65;7.97;;;;;;;;;;5055071;28;20079;-80
2022/06/09 02:39:36;;;;;;;25.85;7.93;;;;;;;;;;5071872;28;20493;-82
2022/06/09 02:42:03;;;;;;;24.33;8.07;;;;;;;;;;5055098;28;20048;-82
2022/06/09 02:44:29;;;;;;;18.95;8.02;;;;;;;;;;5071619;28;20048;-82
2022/06/09 02:46:55;;;;;;;23.50;8.73;;;;;;;;;;5071842;28;20052;-85
2022/06/09 02:49:21;;;;;;;31.02;8.70;;;;;;;;;;5054763;28;20037;-79
2022/06/09 02:51:48;;;;;;;22.55;7.63;;;;;;;;;;5054927;28;20566;-83
2022/06/09 02:54:14;;;;;;;20.98;8.38;;;;;;;;;;5055988;28;20051;-82
2022/06/09 02:56:41;;;;;;;22.88;9.18;;;;;;;;;;5064151;28;20476;-84
2022/06/09 02:59:07;;;;;;;18.52;7.65;;;;;;;;;;5065723;28;20036;-83
2022/06/09 03:01:33;;;;;;;21.45;7.60;;;;;;;;;;5065056;28;20036;-83
2022/06/09 03:03:59;;;;;;;23.73;9.20;;;;;;;;;;5064550;28;20119;-82
2022/06/09 03:06:25;;;;;;;21.02;7.85;;;;;;;;;;5063223;28;20045;-81
2022/06/09 03:08:51;;;;;;;18.17;8.93;;;;;;;;;;5065134;28;20138;-82
2022/06/09 03:11:18;;;;;;;21.90;8.75;;;;;;;;;;5064353;28;20040;-82
2022/06/09 03:13:44;;;;;;;22.42;8.88;;;;;;;;;;5063062;28;20032;-82
2022/06/09 03:16:13;;;;;;;25.00;8.60;;;;;;;;;;5064881;28;20392;-84
2022/06/09 03:18:39;;;;;;;25.52;8.65;;;;;;;;;;5064453;28;20071;-81
2022/06/09 03:21:05;;;;;;;21.88;8.40;;;;;;;;;;5079455;28;20114;-82
2022/06/09 03:23:31;;;;;;;22.63;9.20;;;;;;;;;;5064599;28;20048;-80
2022/06/09 03:25:57;;;;;;;26.00;8.27;;;;;;;;;;5079641;28;20123;-81
2022/06/09 03:28:23;;;;;;;23.25;7.82;;;;;;;;;;5062907;28;20040;-82
2022/06/09 03:30:49;;;;;;;19.75;7.60;;;;;;;;;;5064791;28;20119;-82
2022/06/09 03:33:15;;;;;;;19.63;8.00;;;;;;;;;;5080057;28;20041;-82
2022/06/09 03:35:42;;;;;;;22.60;7.75;;;;;;;;;;5079831;28;20081;-84
2022/06/09 03:38:08;;;;;;;19.67;7.43;;;;;;;;;;5081541;28;20038;-80
2022/06/09 03:40:34;;;;;;;21.00;8.10;;;;;;;;;;5078542;28;20412;-83
2022/06/09 03:43:03;;;;;;;18.10;7.93;;;;;;;;;;5063753;28;20040;-81
2022/06/09 03:45:30;;;;;;;22.83;8.27;;;;;;;;;;5058978;28;20451;-81
2022/06/09 03:47:56;;;;;;;17.52;7.32;;;;;;;;;;5053925;28;20044;-83
2022/06/09 03:50:23;;;;;;;22.13;8.85;;;;;;;;;;5053896;28;20036;-80
2022/06/09 03:52:49;;;;;;;17.15;7.75;;;;;;;;;;5053662;28;20041;-86
2022/06/09 03:55:16;;;;;;;20.55;8.10;;;;;;;;;;5054121;28;20515;-84
2022/06/09 03:57:42;;;;;;;20.20;8.43;;;;;;;;;;5053718;28;20033;-80
2022/06/09 04:00:10;;;;;;;18.65;8.02;;;;;;;;;;5053965;28;20468;-80
2022/06/09 04:02:36;;;;;;;21.77;8.82;;;;;;;;;;5053827;28;20040;-83
2022/06/09 04:05:02;;;;;;;23.98;8.98;;;;;;;;;;5053988;28;20531;-81
2022/06/09 04:07:28;;;;;;;25.08;9.32;;;;;;;;;;5053884;28;20076;-81
2022/06/09 04:09:54;;;;;;;21.17;9.80;;;;;;;;;;5053674;28;20040;-84
2022/06/09 04:12:20;;;;;;;20.83;10.20;;;;;;;;;;5053622;28;20040;-84
2022/06/09 04:14:47;;;;;;;24.40;8.02;;;;;;;;;;5053907;28;20047;-83
2022/06/09 04:17:13;;;;;;;20.30;8.38;;;;;;;;;;5070290;28;20044;-82
2022/06/09 04:19:39;;;;;;;17.33;8.90;;;;;;;;;;5053640;28;20033;-82
2022/06/09 04:22:05;;;;;;;20.85;8.98;;;;;;;;;;5053552;28;20044;-83
2022/06/09 04:24:32;;;;;;;18.48;8.88;;;;;;;;;;5070104;28;20135;-83
2022/06/09 04:26:58;;;;;;;21.75;8.63;;;;;;;;;;5053720;28;20093;-82
2022/06/09 04:29:24;;;;;;;16.90;8.50;;;;;;;;;;5053499;28;20488;-84
2022/06/09 04:31:50;;;;;;;17.48;8.48;;;;;;;;;;5053543;28;20055;-82
2022/06/09 04:34:16;;;;;;;18.58;8.32;;;;;;;;;;5053430;28;20037;-83
2022/06/09 04:36:42;;;;;;;15.48;8.05;;;;;;;;;;5071029;28;20040;-82
2022/06/09 04:39:09;;;;;;;23.75;8.73;;;;;;;;;;5073854;28;20115;-82
2022/06/09 04:41:36;;;;;;;15.90;7.38;;;;;;;;;;5057570;28;20047;-83
2022/06/09 04:44:03;;;;;;;18.88;8.25;;;;;;;;;;5057277;28;20040;-83
2022/06/09 04:46:29;;;;;;;15.88;7.78;;;;;;;;;;5057135;28;20123;-82
2022/06/09 04:48:55;;;;;;;15.20;7.50;;;;;;;;;;5057524;28;20437;-81
2022/06/09 04:51:21;;;;;;;17.40;7.18;;;;;;;;;;5057408;28;20079;-81
2022/06/09 04:53:48;;;;;;;20.20;7.45;;;;;;;;;;5073845;28;20040;-84
2022/06/09 04:56:14;;;;;;;17.65;7.95;;;;;;;;;;5057043;28;20033;-84
2022/06/09 04:58:41;;;;;;;14.10;8.00;;;;;;;;;;5057023;28;20037;-82
2022/06/09 05:01:08;;;;;;;13.27;6.55;;;;;;;;;;5056903;28;20033;-81
2022/06/09 05:03:34;;;;;;;17.58;7.25;;;;;;;;;;5057149;28;20047;-82
2022/06/09 05:06:00;;;;;;;17.92;7.85;;;;;;;;;;5056821;28;20037;-82
2022/06/09 05:08:26;;;;;;;16.33;8.43;;;;;;;;;;5057206;28;20106;-81
2022/06/09 05:10:52;;;;;;;17.10;7.70;;;;;;;;;;5056867;28;20044;-81
2022/06/09 05:13:18;;;;;;;19.40;8.15;;;;;;;;;;5056608;28;20040;-79
2022/06/09 05:15:55;;;;;;;15.60;7.78;;;;;;;;;;5073786;28;20044;-80
2022/06/09 05:18:22;;;;;;;14.52;8.10;;;;;;;;;;5073469;28;20072;-83
2022/06/09 05:20:49;;;;;;;16.73;7.68;;;;;;;;;;5057039;28;20492;-79
2022/06/09 05:23:15;;;;;;;15.20;8.25;;;;;;;;;;5058001;28;20044;-84
2022/06/09 05:25:41;;;;;;;14.93;7.25;;;;;;;;;;5057801;28;20311;-83
2022/06/09 05:28:07;;;;;;;12.68;7.13;;;;;;;;;;5057269;28;20461;-81
2022/06/09 05:30:33;;;;;;;15.90;8.40;;;;;;;;;;5056612;28;20040;-80
2022/06/09 05:33:01;;;;;;;18.33;9.30;;;;;;;;;;5056783;28;20044;-82
2022/06/09 05:35:27;;;;;;;16.23;9.43;;;;;;;;;;5057966;28;20036;-83
2022/06/09 05:46:07;;;;;;;19.95;10.88;;;;;;;;;;5073168;28;20064;-84
2022/06/09 05:48:33;;;;;;;20.02;10.13;;;;;;;;;;5071800;28;20036;-80
2022/06/09 05:51:00;;;;;;;22.92;10.25;;;;;;;;;;5072803;28;20125;-83
2022/06/09 05:53:26;;;;;;;19.73;9.93;;;;;;;;;;5055957;28;20471;-83
2022/06/09 05:55:52;;;;;;;19.83;10.85;;;;;;;;;;5072785;28;20452;-82
2022/06/09 05:58:18;;;;;;;17.17;10.52;;;;;;;;;;5055695;28;20032;-81
2022/06/09 06:00:47;;;;;;;19.63;10.77;;;;;;;;;;5056125;28;20039;-83
2022/06/09 06:03:14;;;;;;;23.65;10.90;;;;;;;;;;5058036;28;20040;-78
2022/06/09 06:08:25;;;;;;;20.65;10.15;;;;;;;;;;5071085;28;20048;-80
2022/06/09 06:10:53;;;;;;;21.05;11.43;;;;;;;;;;5052725;28;20044;-83
2022/06/09 06:13:19;;;;;;;20.00;11.13;;;;;;;;;;5052287;28;20123;-84
2022/06/09 06:15:45;;;;;;;18.70;10.88;;;;;;;;;;5052710;28;20040;-84
2022/06/09 06:18:12;;;;;;;19.85;10.57;;;;;;;;;;5052269;28;20374;-83
2022/06/09 06:20:38;;;;;;;21.80;10.38;;;;;;;;;;5069610;28;20178;-82
2022/06/09 06:23:05;;;;;;;19.45;10.68;;;;;;;;;;5052245;28;20416;-84
2022/06/09 06:25:31;;;;;;;23.98;11.13;;;;;;;;;;5051906;28;20056;-82
2022/06/09 06:27:58;;;;;;;21.92;10.55;;;;;;;;;;5052461;28;20420;-82
2022/06/09 06:30:24;;;;;;;22.67;12.25;;;;;;;;;;5052448;28;20044;-83
2022/06/09 06:32:50;;;;;;;22.88;12.05;;;;;;;;;;5052469;28;20515;-82
2022/06/09 06:35:16;;;;;;;22.70;12.63;;;;;;;;;;5051900;28;20044;-83
2022/06/09 06:37:42;;;;;;;21.92;11.23;;;;;;;;;;5068748;28;20044;-85
2022/06/09 06:40:13;;;;;;;27.83;13.63;;;;;;;;;;5051507;28;20053;-82
2022/06/09 06:42:39;;;;;;;24.35;12.10;;;;;;;;;;5068638;28;20559;-84
2022/06/09 06:45:05;;;;;;;28.55;12.98;;;;;;;;;;5051815;28;20098;-89
2022/06/09 06:47:31;;;;;;;26.23;13.02;;;;;;;;;;5069104;28;20059;-86
2022/06/09 06:49:57;;;;;;;21.98;11.95;;;;;;;;;;5050915;28;20040;-83
2022/06/09 06:52:23;;;;;;;22.17;12.05;;;;;;;;;;5068134;28;20515;-83
2022/06/09 06:54:50;;;;;;;20.27;11.45;;;;;;;;;;5051324;28;20082;-82
2022/06/09 06:57:16;;;;;;;23.95;12.07;;;;;;;;;;5051556;28;20044;-84
2022/06/09 06:59:42;;;;;;;20.20;11.35;;;;;;;;;;5067683;28;20090;-83
2022/06/09 07:02:10;;;;;;;14.73;9.80;;;;;;;;;;5051417;28;20037;-81
2022/06/09 07:04:36;;;;;;;17.95;10.40;;;;;;;;;;5051306;28;20056;-85
2022/06/09 07:07:02;;;;;;;16.35;10.20;;;;;;;;;;5051349;28;20040;-87
2022/06/09 07:09:28;;;;;;;17.00;10.05;;;;;;;;;;5051948;28;20048;-87
2022/06/09 07:11:54;;;;;;;13.98;8.77;;;;;;;;;;5051292;28;20048;-83
2022/06/09 07:14:20;;;;;;;14.32;10.25;;;;;;;;;;5067471;28;20041;-85
2022/06/09 07:16:46;;;;;;;14.50;10.02;;;;;;;;;;5050900;28;20068;-87
2022/06/09 07:19:13;;;;;;;13.30;10.82;;;;;;;;;;5051415;28;20432;-87
2022/06/09 07:21:39;;;;;;;14.73;13.23;;;;;;;;;;5051395;28;20511;-84
2022/06/09 07:24:05;;;;;;;12.95;10.32;;;;;;;;;;5051819;28;20484;-85
2022/06/09 07:26:31;;;;;;;13.05;10.63;;;;;;;;;;5050639;28;20045;-88
2022/06/09 07:28:57;;;;;;;15.63;13.73;;;;;;;;;;5051935;28;20400;-84
2022/06/09 07:31:23;;;;;;;13.77;10.40;;;;;;;;;;5054719;28;20047;-89
2022/06/09 07:33:49;;;;;;;12.55;9.60;;;;;;;;;;5055905;28;20485;-84
2022/06/09 07:36:16;;;;;;;12.55;10.00;;;;;;;;;;5056240;28;20036;-88
2022/06/09 07:38:43;;;;;;;13.68;11.35;;;;;;;;;;5056026;28;20123;-83
2022/06/09 07:41:09;;;;;;;11.55;9.10;;;;;;;;;;5054891;28;20511;-86
2022/06/09 07:43:35;;;;;;;11.52;10.43;;;;;;;;;;5059811;28;20097;-84
2022/06/09 07:46:02;;;;;;;13.27;11.18;;;;;;;;;;5065079;28;20043;-86
2022/06/09 07:48:28;;;;;;;10.00;7.85;;;;;;;;;;5062553;28;20043;-91
2022/06/09 07:50:54;;;;;;;8.77;7.85;;;;;;;;;;5064126;28;20082;-84
2022/06/09 07:53:21;;;;;;;9.32;8.32;;;;;;;;;;5063304;28;20040;-85
2022/06/09 07:55:48;;;;;;;8.00;6.97;;;;;;;;;;5081782;28;20434;-82
2022/06/09 07:58:14;;;;;;;9.57;8.52;;;;;;;;;;5064947;28;20492;-85
2022/06/09 08:00:40;;;;;;;9.27;8.38;;;;;;;;;;5063403;28;20459;-87
2022/06/09 08:03:07;;;;;;;9.65;8.77;;;;;;;;;;5063837;28;20040;-84
2022/06/09 08:05:33;;;;;;;11.27;7.95;;;;;;;;;;5063378;28;20051;-85
2022/06/09 08:07:59;;;;;;;8.40;6.55;;;;;;;;;;5062903;28;20047;-85
2022/06/09 08:10:26;;;;;;;7.63;6.85;;;;;;;;;;5065876;28;20044;-82
2022/06/09 08:12:55;;;;;;;8.48;6.68;;;;;;;;;;5082156;28;20043;-83
2022/06/09 08:15:24;;;;;;;7.13;6.35;;;;;;;;;;5067188;28;20032;-84
2022/06/09 08:17:50;;;;;;;7.97;6.60;;;;;;;;;;5085302;28;20050;-84
2022/06/09 08:20:16;;;;;;;8.27;6.28;;;;;;;;;;5068722;28;20441;-86
2022/06/09 08:22:43;;;;;;;6.03;4.85;;;;;;;;;;5084332;28;20120;-87
2022/06/09 08:25:14;;;;;;;4.70;4.30;;;;;;;;;;5067958;28;20070;-85
2022/06/09 08:27:40;;;;;;;4.97;4.47;;;;;;;;;;5068556;28;20101;-83
2022/06/09 08:30:08;;;;;;;4.88;4.47;;;;;;;;;;5067893;28;20480;-82
2022/06/09 08:32:34;;;;;;;4.30;3.90;;;;;;;;;;5067768;28;20062;-81
2022/06/09 08:35:00;;;;;;;5.10;3.90;;;;;;;;;;5069438;28;20058;-84
2022/06/09 08:37:26;;;;;;;4.15;3.40;;;;;;;;;;5066510;28;20024;-85
2022/06/09 08:39:53;;;;;;;4.20;3.40;;;;;;;;;;5067557;28;20074;-85
2022/06/09 08:42:28;;;;;;;4.03;3.10;;;;;;;;;;5066941;28;20119;-83
2022/06/09 08:44:54;;;;;;;4.28;3.88;;;;;;;;;;5068322;28;20443;-85
2022/06/09 08:47:33;;;;;;;4.05;3.65;;;;;;;;;;5066445;28;20032;-83
2022/06/09 08:49:59;;;;;;;5.03;3.72;;;;;;;;;;5066212;28;20146;-85
2022/06/09 08:52:27;;;;;;;3.45;3.03;;;;;;;;;;5085344;28;20122;-84
2022/06/09 08:54:54;;;;;;;3.28;2.95;;;;;;;;;;5069774;28;20035;-84
2022/06/09 08:57:23;;;;;;;3.42;3.03;;;;;;;;;;5068532;28;20036;-82
2022/06/09 08:59:52;;;;;;;3.58;2.55;;;;;;;;;;5067366;28;20033;-85
2022/06/09 09:02:25;;;;;;;4.63;2.90;;;;;;;;;;5083008;28;20484;-84
2022/06/09 09:05:00;;;;;;;3.70;2.53;;;;;;;;;;5067602;28;20041;-79
2022/06/09 09:07:29;;;;;;;3.83;2.55;;;;;;;;;;5098314;28;20052;-84
2022/06/09 09:10:22;;;;;;;2.58;2.33;;;;;;;;;;5067213;28;20048;-84
2022/06/09 09:13:01;;;;;;;5.50;2.40;;;;;;;;;;5052373;28;20044;-83
2022/06/09 09:15:33;;;;;;;2.60;2.30;;;;;;;;;;5100276;28;20404;-85
2022/06/09 09:18:15;;;;;;;2.47;2.08;;;;;;;;;;5068676;28;20123;-86
2022/06/09 09:21:04;;;;;;;3.42;2.35;;;;;;;;;;5068350;28;20506;-84
2022/06/09 09:23:44;;;;;;;3.47;1.98;;;;;;;;;;5100719;28;20040;-87
2022/06/09 09:26:29;;;;;;;4.53;1.40;;;;;;;;;;5082188;28;20037;-85
2022/06/09 09:29:18;;;;;;;2.20;1.60;;;;;;;;;;5101038;28;20043;-88
2022/06/09 09:32:05;;;;;;;2.78;1.55;;;;;;;;;;5096617;28;20044;-81
2022/06/09 09:34:36;;;;;;;3.67;1.30;;;;;;;;;;5098131;28;20047;-85
2022/06/09 09:37:02;;;;;;;;;;;;;;;;;;5084700;28;20036;-84
2022/06/09 09:39:45;;;;;;;3.67;1.50;;;;;;;;;;5082766;28;19927;-88
2022/06/09 09:42:13;;;;;;;3.60;2.00;;;;;;;;;;5099433;28;20079;-82
2022/06/09 09:44:39;;;;;;;4.80;1.65;;;;;;;;;;5069190;28;20048;-85
2022/06/09 09:47:07;;;;;;;2.65;1.70;;;;;;;;;;5084322;28;20110;-85
2022/06/09 09:49:41;;;;;;;4.80;1.38;;;;;;;;;;5067208;28;20464;-85
2022/06/09 09:52:26;;;;;;;3.80;1.50;;;;;;;;;;5065867;28;20041;-83
2022/06/09 09:54:52;;;;;;;3.10;1.60;;;;;;;;;;5099853;28;20062;-85
2022/06/09 09:57:20;;;;;;;4.85;1.58;;;;;;;;;;5065535;28;20041;-84
2022/06/09 09:59:56;;;;;;;2.25;1.50;;;;;;;;;;5067938;28;20489;-82
2022/06/09 10:08:39;;;;;;;2.38;1.17;;;;;;;;;;5115094;27;20064;-83
2022/06/09 10:13:55;;;;;;;6.65;1.27;;;;;;;;;;5116465;27;20079;-82
2022/06/09 10:16:21;;;;;;;2.85;1.10;;;;;;;;;;5064360;28;20408;-82
2022/06/09 10:18:54;;;;;;;7.72;1.50;;;;;;;;;;5066258;28;20067;-87
2022/06/09 10:21:20;;;;;;;1.20;1.08;;;;;;;;;;5067304;28;20086;-84
2022/06/09 10:23:46;;;;;;;3.92;1.58;;;;;;;;;;5065044;28;20090;-85
2022/06/09 10:26:15;;;;;;;2.17;1.25;;;;;;;;;;5065762;28;20035;-79
2022/06/09 10:28:51;;;;;;;4.70;1.35;;;;;;;;;;5065225;28;20040;-85
2022/06/09 10:31:35;;;;;;;2.17;1.05;;;;;;;;;;5065353;28;20055;-86
2022/06/09 10:34:04;;;;;;;2.80;1.17;;;;;;;;;;5100212;28;20036;-88
2022/06/09 10:36:37;;;;;;;4.32;1.13;;;;;;;;;;5066270;28;20039;-82
2022/06/09 10:39:10;;;;;;;2.97;1.35;;;;;;;;;;5098650;28;20039;-85
2022/06/09 10:41:42;;;;;;;4.13;1.70;;;;;;;;;;5083068;28;20040;-80
2022/06/09 10:44:16;;;;;;;1.77;1.17;;;;;;;;;;5062260;28;20040;-81
2022/06/09 10:55:14;;;;;;;2.88;1.38;;;;;;;;;;5071843;28;20475;-85
2022/06/09 10:55:32;;;;;;;6.43;1.20;;;;;;;;;;5021947;28;20114;-85
2022/06/09 10:58:17;;;;;;;1.23;1.10;;;;;;;;;;5045488;28;20099;-85
2022/06/09 11:00:47;;;;;;;2.42;1.27;;;;;;;;;;5079606;28;20045;-82
2022/06/09 11:03:21;;;;;;;3.88;1.15;;;;;;;;;;5043590;28;20044;-82
2022/06/09 11:05:53;;;;;;;2.92;1.30;;;;;;;;;;5075277;28;20040;-84
2022/06/09 11:08:19;;;;;;;3.55;1.35;;;;;;;;;;5056506;28;20093;-83
2022/06/09 11:10:45;;;;;;;4.45;1.30;;;;;;;;;;5059455;28;20048;-86
2022/06/09 11:13:23;;;;;;;2.47;0.82;;;;;;;;;;5056343;28;20045;-84
2022/06/09 11:16:02;;;;;;;5.70;1.58;;;;;;;;;;5056155;28;20118;-82
2022/06/09 11:18:37;;;;;;;5.15;1.42;;;;;;;;;;5062919;28;20039;-84
2022/06/09 11:21:23;;;;;;;9.05;1.63;;;;;;;;;;5109315;28;20047;-82
2022/06/09 11:24:05;;;;;;;2.67;1.10;;;;;;;;;;5071868;28;20062;-83
2022/06/09 11:26:50;;;;;;;5.45;1.20;;;;;;;;;;5056046;28;20067;-81
2022/06/09 11:29:32;;;;;;;2.53;1.05;;;;;;;;;;5056963;28;20434;-82
2022/06/09 11:31:57;;;;;;;4.35;1.20;;;;;;;;;;5094698;28;20051;-84
2022/06/09 11:34:42;;;;;;;1.60;1.50;;;;;;;;;;5062381;28;20040;-81
2022/06/09 11:37:14;;;;;;;1.17;1.08;;;;;;;;;;5073932;28;20480;-84
2022/06/09 11:39:46;;;;;;;3.03;1.10;;;;;;;;;;5051363;28;20095;-83
2022/06/09 11:42:32;;;;;;;4.40;1.67;;;;;;;;;;5051099;28;20043;-83
2022/06/09 11:45:01;;;;;;;2.45;1.23;;;;;;;;;;5050986;28;20386;-82
2022/06/09 11:47:30;;;;;;;1.25;1.08;;;;;;;;;;5050180;28;20583;-83
2022/06/09 11:49:59;;;;;;;2.58;1.02;;;;;;;;;;5050705;28;20051;-85
2022/06/09 11:52:31;;;;;;;4.35;1.17;;;;;;;;;;5049913;28;20496;-83
2022/06/09 11:55:00;;;;;;;4.03;1.23;;;;;;;;;;5067316;28;20041;-84
2022/06/09 11:57:43;;;;;;;3.78;1.23;;;;;;;;;;5034766;28;20428;-78
2022/06/09 12:00:09;;;;;;;2.40;1.25;;;;;;;;;;5050553;28;20455;-82
2022/06/09 12:02:41;;;;;;;6.20;1.15;;;;;;;;;;5051048;28;20037;-86
2022/06/09 12:05:16;;;;;;;2.35;1.05;;;;;;;;;;5050569;28;20045;-83
2022/06/09 12:08:02;;;;;;;3.20;1.50;;;;;;;;;;5051090;28;20095;-82
2022/06/09 12:10:39;;;;;;;4.00;1.33;;;;;;;;;;5050332;28;20079;-81
2022/06/09 12:13:05;;;;;;;1.90;1.05;;;;;;;;;;5067178;28;20048;-83
2022/06/09 12:15:33;;;;;;;2.65;1.30;;;;;;;;;;5051200;28;20527;-85
2022/06/09 12:18:05;;;;;;;3.53;1.80;;;;;;;;;;5067357;28;20538;-84
2022/06/09 12:20:34;;;;;;;3.25;1.38;;;;;;;;;;5050889;28;20050;-83
2022/06/09 12:23:04;;;;;;;4.18;1.45;;;;;;;;;;5050686;28;20168;-85
2022/06/09 12:25:33;;;;;;;1.80;1.10;;;;;;;;;;5067492;28;20059;-82
2022/06/09 12:27:59;;;;;;;2.78;1.02;;;;;;;;;;5067592;28;20056;-81
2022/06/09 12:30:28;;;;;;;2.80;0.90;;;;;;;;;;5066834;28;20091;-86
2022/06/09 12:33:12;;;;;;;2.00;0.90;;;;;;;;;;5050448;28;20079;-85
2022/06/09 12:35:46;;;;;;;6.85;1.25;;;;;;;;;;5051375;28;20047;-82
2022/06/09 12:38:18;;;;;;;1.63;1.10;;;;;;;;;;5052674;28;20043;-83
2022/06/09 12:40:47;;;;;;;3.67;1.00;;;;;;;;;;5070470;28;20049;-81
2022/06/09 12:43:40;;;;;;;3.60;1.20;;;;;;;;;;5053633;28;20044;-83
2022/06/09 12:46:18;;;;;;;2.05;1.08;;;;;;;;;;5051945;28;20167;-82
2022/06/09 12:48:44;;;;;;;3.10;1.33;;;;;;;;;;5070630;28;20048;-81
2022/06/09 12:51:17;;;;;;;3.58;1.15;;;;;;;;;;5053919;28;20045;-85
2022/06/09 12:53:48;;;;;;;4.55;1.20;;;;;;;;;;5071222;28;20097;-89
2022/06/09 12:56:33;;;;;;;2.72;1.15;;;;;;;;;;5056526;28;20028;-79
2022/06/09 12:59:03;;;;;;;2.67;1.17;;;;;;;;;;5098824;28;20366;-84
2022/06/09 13:01:29;;;;;;;;;;;;;;;;;;5066293;28;20477;-79
2022/06/09 13:04:00;;;;;;;2.45;1.10;;;;;;;;;;5100941;28;19915;-83
2022/06/09 13:06:35;;;;;;;4.82;1.40;;;;;;;;;;5065241;28;20045;-84
2022/06/09 13:09:17;;;;;;;3.40;1.25;;;;;;;;;;5066465;28;20043;-82
2022/06/09 13:14:30;;;;;;;2.88;1.02;;;;;;;;;;5084515;28;20122;-85
2022/06/09 13:17:02;;;;;;;3.08;1.10;;;;;;;;;;5066610;28;20040;-79
2022/06/09 13:19:29;;;;;;;4.50;1.50;;;;;;;;;;5066277;28;20041;-81
2022/06/09 13:21:58;;;;;;;2.63;1.20;;;;;;;;;;5084082;28;20036;-83
2022/06/09 13:24:30;;;;;;;5.30;1.58;;;;;;;;;;5068500;28;20664;-86
2022/06/09 13:26:57;;;;;;;1.98;1.25;;;;;;;;;;5096818;28;20511;-82
2022/06/09 13:29:24;;;;;;;1.55;1.05;;;;;;;;;;5066925;28;20040;-85
2022/06/09 13:31:52;;;;;;;3.22;1.23;;;;;;;;;;5065596;28;20040;-82
2022/06/09 13:34:22;;;;;;;2.40;1.13;;;;;;;;;;5066546;28;20036;-89
2022/06/09 13:36:54;;;;;;;2.88;0.88;;;;;;;;;;5068006;28;20476;-86
2022/06/09 13:39:27;;;;;;;1.92;1.10;;;;;;;;;;5064915;28;20044;-82
2022/06/09 13:41:54;;;;;;;3.13;1.13;;;;;;;;;;5096629;28;20060;-83
2022/06/09 13:44:26;;;;;;;2.53;1.50;;;;;;;;;;5082671;28;20039;-78
2022/06/09 13:46:55;;;;;;;2.40;1.25;;;;;;;;;;5063794;28;20480;-83
2022/06/09 13:49:22;;;;;;;2.10;1.17;;;;;;;;;;5083013;28;20126;-84
2022/06/09 13:51:54;;;;;;;2.03;1.63;;;;;;;;;;5067876;28;20077;-83
2022/06/09 13:54:22;;;;;;;4.22;1.10;;;;;;;;;;5082504;28;20039;-85
2022/06/09 13:56:49;;;;;;;2.88;1.38;;;;;;;;;;5067142;28;20047;-85
2022/06/09 13:59:16;;;;;;;3.17;1.30;;;;;;;;;;5065732;28;20078;-83
2022/06/09 14:01:42;;;;;;;2.72;1.13;;;;;;;;;;5066194;28;20437;-87
2022/06/09 14:04:18;;;;;;;3.17;1.10;;;;;;;;;;5067459;28;20043;-86
2022/06/09 14:06:44;;;;;;;3.63;1.45;;;;;;;;;;5066914;28;20511;-87
2022/06/09 14:09:12;;;;;;;3.85;1.33;;;;;;;;;;5064216;28;20131;-85
2022/06/09 14:11:38;;;;;;;7.13;1.25;;;;;;;;;;5065568;28;20158;-81
2022/06/09 14:14:04;;;;;;;2.00;1.10;;;;;;;;;;5064065;28;20170;-83
2022/06/09 14:16:32;;;;;;;4.28;1.50;;;;;;;;;;5066361;28;20032;-81
2022/06/09 14:18:59;;;;;;;3.42;1.42;;;;;;;;;;5065414;28;20062;-85
2022/06/09 14:21:26;;;;;;;2.83;1.35;;;;;;;;;;5067059;28;20032;-83
2022/06/09 14:23:52;;;;;;;4.40;1.48;;;;;;;;;;5064666;28;20037;-84
2022/06/09 14:26:29;;;;;;;2.15;1.52;;;;;;;;;;5067611;28;20041;-83
2022/06/09 14:28:58;;;;;;;3.47;1.33;;;;;;;;;;5099041;28;20034;-83
2022/06/09 14:31:24;;;;;;;5.55;1.85;;;;;;;;;;5066249;28;20488;-81
2022/06/09 14:33:51;;;;;;;4.63;1.52;;;;;;;;;;5063673;28;20044;-83
2022/06/09 14:36:18;;;;;;;4.38;1.20;;;;;;;;;;5081538;28;20544;-85
2022/06/09 14:38:45;;;;;;;2.35;1.40;;;;;;;;;;5064397;28;20210;-85
2022/06/09 14:41:15;;;;;;;6.18;1.30;;;;;;;;;;5066044;28;20116;-86
2022/06/09 14:43:41;;;;;;;3.10;1.30;;;;;;;;;;5066097;28;20122;-82
2022/06/09 14:46:10;;;;;;;1.60;1.00;;;;;;;;;;5082930;28;20036;-84
2022/06/09 14:48:39;;;;;;;2.85;1.35;;;;;;;;;;5064666;28;20074;-83
2022/06/09 14:51:05;;;;;;;3.72;1.23;;;;;;;;;;5064323;28;20077;-82
2022/06/09 14:53:31;;;;;;;2.65;1.05;;;;;;;;;;5065575;28;20051;-83
2022/06/09 14:55:57;;;;;;;3.75;1.35;;;;;;;;;;5065042;28;20093;-82
2022/06/09 14:58:25;;;;;;;2.17;1.10;;;;;;;;;;5063884;28;20392;-83
2022/06/09 15:00:52;;;;;;;2.15;1.10;;;;;;;;;;5063837;28;20036;-84
2022/06/09 15:03:19;;;;;;;7.13;1.48;;;;;;;;;;5064941;28;20038;-83
2022/06/09 15:05:46;;;;;;;4.38;1.30;;;;;;;;;;5065957;28;20048;-85
2022/06/09 15:08:13;;;;;;;2.70;1.25;;;;;;;;;;5097188;28;20035;-84
2022/06/09 15:10:44;;;;;;;3.45;1.23;;;;;;;;;;5065070;28;20040;-85
2022/06/09 15:13:10;;;;;;;3.53;1.25;;;;;;;;;;5061697;28;20328;-85
2022/06/09 15:15:37;;;;;;;3.60;1.15;;;;;;;;;;5076315;28;20052;-84